Time;durP1;ratioP1;P1;durP2;ratioP2;P2;SDS_P1;SDS_P2;PMS_P1;PMS_P2;Temp;Humidity;BMP_temperature;BMP_pressure;BME280_temperature;BME280_humidity;BME280_pressure;Samples;Min_cycle;Max_cycle;Signal;HPM_P1;HPM_P2
2021/09/15 00:01:23;;;;;;;48.20;42.45;;;18.10;99.90;;;;;;4194705;28;20554;-73
2021/09/15 00:03:23;;;;;;;47.20;41.33;;;18.20;99.90;;;;;;4199473;27;20030;-73
2021/09/15 00:05:24;;;;;;;48.08;39.08;;;18.20;99.90;;;;;;4199711;28;20483;-72
2021/09/15 00:07:24;;;;;;;43.92;38.90;;;18.20;99.90;;;;;;4196615;28;20033;-72
2021/09/15 00:09:25;;;;;;;48.38;42.97;;;18.20;99.90;;;;;;4197395;28;20043;-74
2021/09/15 00:11:26;;;;;;;47.17;42.15;;;18.20;99.90;;;;;;4196422;28;20472;-73
2021/09/15 00:13:28;;;;;;;49.95;43.05;;;18.20;99.90;;;;;;4194881;28;20473;-73
2021/09/15 00:15:28;;;;;;;53.03;42.85;;;18.20;99.90;;;;;;4198701;28;20036;-74
2021/09/15 00:17:29;;;;;;;51.03;42.50;;;18.10;99.90;;;;;;4191563;28;20052;-73
2021/09/15 00:19:30;;;;;;;49.38;39.00;;;18.00;99.90;;;;;;4199851;28;20081;-73
2021/09/15 00:21:30;;;;;;;45.58;40.60;;;18.00;99.90;;;;;;4200503;28;20033;-75
2021/09/15 00:23:31;;;;;;;51.10;40.92;;;17.90;99.90;;;;;;4198699;28;20032;-73
2021/09/15 00:25:31;;;;;;;50.08;43.08;;;17.90;99.90;;;;;;4202113;28;20029;-73
2021/09/15 00:27:32;;;;;;;47.95;39.50;;;17.80;99.90;;;;;;4194908;28;20036;-72
2021/09/15 00:29:33;;;;;;;48.60;40.83;;;17.80;99.90;;;;;;4200526;28;20051;-72
2021/09/15 00:31:33;;;;;;;49.85;41.63;;;17.80;99.90;;;;;;4197488;28;20068;-72
2021/09/15 00:33:34;;;;;;;45.55;39.72;;;17.70;99.90;;;;;;4193583;28;20036;-72
2021/09/15 00:35:35;;;;;;;47.33;39.20;;;17.70;99.90;;;;;;4197325;28;20041;-73
2021/09/15 00:37:35;;;;;;;56.00;43.90;;;17.70;99.90;;;;;;4197337;28;20105;-73
2021/09/15 00:39:37;;;;;;;55.83;45.55;;;17.70;99.90;;;;;;4196706;28;20431;-73
2021/09/15 00:41:38;;;;;;;57.75;45.78;;;17.60;99.90;;;;;;4192944;28;20438;-74
2021/09/15 00:44:10;;;;;;;69.25;48.88;;;17.70;99.90;;;;;;4196008;28;20116;-72
2021/09/15 00:46:10;;;;;;;58.00;44.45;;;17.60;99.90;;;;;;4196180;28;20032;-72
2021/09/15 00:48:11;;;;;;;53.63;41.38;;;17.60;99.90;;;;;;4195200;28;20044;-72
2021/09/15 00:50:12;;;;;;;55.20;42.95;;;17.50;99.90;;;;;;4199137;28;20479;-73
2021/09/15 00:52:12;;;;;;;60.10;45.28;;;17.60;99.90;;;;;;4193818;28;20028;-72
2021/09/15 00:54:16;;;;;;;55.25;44.45;;;17.60;99.90;;;;;;4197029;27;20032;-72
2021/09/15 00:56:17;;;;;;;58.05;44.08;;;17.70;99.90;;;;;;4193591;28;20025;-71
2021/09/15 00:58:18;;;;;;;56.53;43.92;;;17.60;99.90;;;;;;4199122;28;20494;-73
2021/09/15 01:00:19;;;;;;;52.55;44.10;;;17.60;99.90;;;;;;4194085;28;20033;-72
2021/09/15 01:02:19;;;;;;;61.80;44.75;;;17.50;99.90;;;;;;4196899;28;20025;-72
2021/09/15 01:04:20;;;;;;;58.85;47.22;;;17.50;99.90;;;;;;4194552;28;20032;-71
2021/09/15 01:06:21;;;;;;;62.97;45.60;;;17.40;99.90;;;;;;4196348;28;20064;-74
2021/09/15 01:08:24;;;;;;;59.72;42.83;;;17.40;99.90;;;;;;4190009;28;20128;-72
2021/09/15 01:10:26;;;;;;;62.53;47.90;;;;;;;;;;4202945;28;20086;-73
2021/09/15 01:12:27;;;;;;;67.72;45.60;;;17.40;99.90;;;;;;4194539;28;20060;-72
2021/09/15 01:14:28;;;;;;;63.17;46.15;;;17.30;99.90;;;;;;4196017;28;20037;-73
2021/09/15 01:16:53;;;;;;;58.92;43.83;;;17.30;99.90;;;;;;4188193;28;20099;-72
2021/09/15 01:18:53;;;;;;;60.15;44.35;;;17.20;99.90;;;;;;4195366;28;20507;-72
2021/09/15 01:20:55;;;;;;;57.78;44.90;;;17.20;99.90;;;;;;4195763;28;20041;-72
2021/09/15 01:22:55;;;;;;;59.05;39.72;;;17.20;99.90;;;;;;4197003;28;20123;-73
2021/09/15 01:24:56;;;;;;;61.03;46.90;;;17.20;99.90;;;;;;4190849;28;20067;-71
2021/09/15 01:26:58;;;;;;;57.67;44.58;;;17.20;99.90;;;;;;4195884;28;20040;-73
2021/09/15 01:28:59;;;;;;;58.35;40.15;;;17.10;99.90;;;;;;4195489;28;20040;-73
2021/09/15 01:30:59;;;;;;;55.20;41.95;;;17.00;99.90;;;;;;4195519;28;20048;-73
2021/09/15 01:33:00;;;;;;;60.25;44.38;;;16.90;99.90;;;;;;4190721;28;20413;-73
2021/09/15 01:35:01;;;;;;;59.55;41.33;;;16.90;99.90;;;;;;4195862;28;20064;-73
2021/09/15 01:37:03;;;;;;;58.45;42.72;;;16.90;99.90;;;;;;4190696;28;20062;-73
2021/09/15 01:39:03;;;;;;;61.53;46.60;;;16.90;99.90;;;;;;4197003;28;20472;-73
2021/09/15 01:41:04;;;;;;;59.38;40.50;;;16.90;99.90;;;;;;4196420;28;20294;-73
2021/09/15 01:43:05;;;;;;;56.63;40.22;;;16.90;99.90;;;;;;4195070;28;20651;-73
2021/09/15 01:45:08;;;;;;;56.92;39.33;;;16.80;99.90;;;;;;4193714;28;20063;-73
2021/09/15 01:47:09;;;;;;;;;;;16.80;99.90;;;;;;4197199;28;20036;-72
2021/09/15 01:49:10;;;;;;;68.20;43.22;;;16.70;99.90;;;;;;4189998;28;20011;-72
2021/09/15 01:51:11;;;;;;;64.50;43.28;;;16.70;99.90;;;;;;4196805;28;20048;-73
2021/09/15 01:53:12;;;;;;;64.32;47.20;;;16.70;99.90;;;;;;4188266;28;20033;-71
2021/09/15 01:55:23;;;;;;;60.33;42.35;;;16.60;99.90;;;;;;4196618;28;20028;-72
2021/09/15 01:57:23;;;;;;;69.88;47.28;;;16.60;99.90;;;;;;4186698;28;20055;-72
2021/09/15 01:59:24;;;;;;;61.05;41.78;;;16.70;99.90;;;;;;4191027;28;20024;-72
2021/09/15 02:01:25;;;;;;;66.30;43.00;;;16.60;99.90;;;;;;4197093;28;20168;-73
2021/09/15 02:03:25;;;;;;;69.78;48.88;;;16.60;99.90;;;;;;4195462;28;20032;-73
2021/09/15 02:05:26;;;;;;;69.90;46.42;;;16.60;99.90;;;;;;4192532;28;20056;-73
2021/09/15 02:07:27;;;;;;;72.60;50.05;;;16.70;99.90;;;;;;4191853;28;20503;-72
2021/09/15 02:09:27;;;;;;;75.63;52.58;;;16.60;99.90;;;;;;4193561;28;20089;-72
2021/09/15 02:11:28;;;;;;;76.78;45.83;;;16.60;99.90;;;;;;4192691;28;20489;-72
2021/09/15 02:13:28;;;;;;;60.97;40.92;;;16.60;99.90;;;;;;4196436;28;20356;-72
2021/09/15 02:15:29;;;;;;;73.97;49.03;;;16.60;99.90;;;;;;4193057;28;20098;-72
2021/09/15 02:17:30;;;;;;;60.47;43.35;;;16.50;99.90;;;;;;4195404;28;20385;-72
2021/09/15 02:19:33;;;;;;;65.95;43.63;;;16.50;99.90;;;;;;4195539;28;20044;-72
2021/09/15 02:21:34;;;;;;;73.25;48.80;;;16.40;99.90;;;;;;4196454;28;20408;-72
2021/09/15 02:23:35;;;;;;;63.00;43.28;;;16.50;99.90;;;;;;4194395;28;20059;-73
2021/09/15 02:25:36;;;;;;;71.05;46.05;;;16.50;99.90;;;;;;4196371;28;20480;-72
2021/09/15 02:27:36;;;;;;;75.50;48.92;;;16.40;99.90;;;;;;4190380;28;20125;-73
2021/09/15 02:29:37;;;;;;;75.45;46.53;;;16.40;99.90;;;;;;4203143;28;20480;-73
2021/09/15 02:31:37;;;;;;;76.70;50.15;;;16.40;99.90;;;;;;4194541;28;20044;-73
2021/09/15 02:33:38;;;;;;;67.40;47.65;;;16.30;99.90;;;;;;4194330;28;20032;-73
2021/09/15 02:35:39;;;;;;;74.97;46.78;;;16.40;99.90;;;;;;4194897;28;20029;-73
2021/09/15 02:37:39;;;;;;;81.38;50.60;;;16.30;99.90;;;;;;4193507;28;20039;-71
2021/09/15 02:39:40;;;;;;;68.38;42.70;;;16.30;99.90;;;;;;4191946;28;20041;-72
2021/09/15 02:41:40;;;;;;;67.38;46.22;;;16.40;99.90;;;;;;4192097;28;20099;-72
2021/09/15 02:43:41;;;;;;;79.68;47.88;;;16.40;99.90;;;;;;4196523;28;20052;-72
2021/09/15 02:45:42;;;;;;;65.47;43.95;;;16.40;99.90;;;;;;4193552;28;20035;-72
2021/09/15 02:47:42;;;;;;;72.63;46.60;;;16.50;99.90;;;;;;4196509;28;20114;-72
2021/09/15 02:49:43;;;;;;;84.00;50.60;;;16.50;99.90;;;;;;4195048;28;20434;-73
2021/09/15 02:51:44;;;;;;;82.40;49.22;;;16.50;99.90;;;;;;4195722;28;20039;-74
2021/09/15 02:53:44;;;;;;;71.07;45.38;;;16.50;99.90;;;;;;4184880;28;20025;-74
2021/09/15 02:55:45;;;;;;;81.88;51.65;;;16.40;99.90;;;;;;4189464;28;20515;-72
2021/09/15 02:57:46;;;;;;;81.53;49.88;;;16.40;99.90;;;;;;4196452;28;20040;-73
2021/09/15 02:59:47;;;;;;;75.45;47.00;;;16.30;99.90;;;;;;4195536;28;20503;-73
2021/09/15 03:01:47;;;;;;;68.97;43.42;;;16.20;99.90;;;;;;4190105;28;20040;-73
2021/09/15 03:03:48;;;;;;;72.97;46.55;;;16.10;99.90;;;;;;4193106;28;20353;-73
2021/09/15 03:05:48;;;;;;;76.13;49.63;;;16.20;99.90;;;;;;4189472;28;20032;-72
2021/09/15 03:07:49;;;;;;;75.82;49.42;;;16.30;99.90;;;;;;4193233;28;20033;-73
2021/09/15 03:09:50;;;;;;;81.07;52.05;;;16.40;99.90;;;;;;4195001;28;20032;-73
2021/09/15 03:11:50;;;;;;;86.00;53.28;;;16.50;99.90;;;;;;4191287;28;20041;-73
2021/09/15 03:13:51;;;;;;;82.32;52.40;;;16.60;99.90;;;;;;4187089;28;20032;-74
2021/09/15 03:15:52;;;;;;;72.00;49.72;;;16.70;99.90;;;;;;4188842;28;20155;-73
2021/09/15 03:17:52;;;;;;;83.00;50.97;;;16.70;99.90;;;;;;4192677;28;20437;-72
2021/09/15 03:19:53;;;;;;;84.03;48.88;;;16.80;99.90;;;;;;4194940;28;20380;-72
2021/09/15 03:21:53;;;;;;;81.55;50.78;;;16.80;99.90;;;;;;4195927;28;20028;-72
2021/09/15 03:23:54;;;;;;;85.30;54.53;;;16.80;99.90;;;;;;4195214;28;20067;-72
2021/09/15 03:25:56;;;;;;;76.53;50.63;;;16.80;99.90;;;;;;4188214;28;20472;-73
2021/09/15 03:27:56;;;;;;;83.60;51.83;;;16.70;99.90;;;;;;4182183;28;20097;-72
2021/09/15 03:29:57;;;;;;;74.80;49.30;;;16.70;99.90;;;;;;4188449;28;20490;-73
2021/09/15 03:31:57;;;;;;;77.65;44.92;;;16.70;99.90;;;;;;4192570;28;20055;-73
2021/09/15 03:33:58;;;;;;;71.75;43.25;;;16.70;99.90;;;;;;4193350;28;20037;-72
2021/09/15 03:35:59;;;;;;;63.67;41.65;;;16.60;99.90;;;;;;4194798;28;20136;-72
2021/09/15 03:37:59;;;;;;;66.35;42.88;;;16.60;99.90;;;;;;4194371;28;20037;-71
2021/09/15 03:40:00;;;;;;;69.85;42.90;;;16.60;99.90;;;;;;4196238;28;20052;-73
2021/09/15 03:42:00;;;;;;;74.60;47.05;;;16.60;99.90;;;;;;4189434;28;20041;-72
2021/09/15 03:44:01;;;;;;;72.80;45.42;;;16.60;99.90;;;;;;4193662;28;20029;-72
2021/09/15 03:46:01;;;;;;;63.92;42.67;;;16.60;99.90;;;;;;4191580;28;20456;-72
2021/09/15 03:48:02;;;;;;;75.40;48.38;;;16.60;99.90;;;;;;4194035;28;20040;-72
2021/09/15 03:50:03;;;;;;;93.03;63.63;;;16.60;99.90;;;;;;4190807;28;20480;-72
2021/09/15 03:52:04;;;;;;;72.80;46.50;;;16.60;99.90;;;;;;4193775;28;20030;-73
2021/09/15 03:54:04;;;;;;;81.10;49.47;;;16.60;99.90;;;;;;4188813;28;20418;-72
2021/09/15 03:56:05;;;;;;;70.47;44.85;;;16.50;99.90;;;;;;4195258;28;20103;-72
2021/09/15 03:58:06;;;;;;;66.00;43.88;;;16.50;99.90;;;;;;4194937;28;20032;-72
2021/09/15 04:00:07;;;;;;;67.43;43.90;;;16.50;99.90;;;;;;4193723;28;20033;-73
2021/09/15 04:02:08;;;;;;;69.57;41.30;;;16.60;99.90;;;;;;4193031;28;20614;-72
2021/09/15 04:04:08;;;;;;;69.88;47.10;;;16.60;99.90;;;;;;4193786;28;20032;-71
2021/09/15 04:06:09;;;;;;;65.82;44.97;;;16.70;99.90;;;;;;4196059;28;20123;-72
2021/09/15 04:08:10;;;;;;;72.22;47.00;;;16.70;99.90;;;;;;4190510;28;20389;-72
2021/09/15 04:10:10;;;;;;;61.80;41.97;;;16.70;99.90;;;;;;4191368;28;20052;-72
2021/09/15 04:12:11;;;;;;;68.05;44.60;;;16.70;99.90;;;;;;4192839;28;20045;-72
2021/09/15 04:14:12;;;;;;;60.60;40.42;;;16.70;99.90;;;;;;4195849;28;20190;-73
2021/09/15 04:16:12;;;;;;;77.75;47.30;;;16.70;99.90;;;;;;4194171;28;20476;-73
2021/09/15 04:18:13;;;;;;;70.53;46.95;;;16.70;99.90;;;;;;4195415;28;20518;-73
2021/09/15 04:20:13;;;;;;;67.93;44.85;;;16.80;99.90;;;;;;4194071;28;20044;-73
2021/09/15 04:22:20;;;;;;;76.07;49.80;;;16.80;99.90;;;;;;4193296;28;20503;-72
2021/09/15 04:33:18;;;;;;;71.50;46.67;;;16.90;99.90;;;;;;4194019;28;20028;-73
2021/09/15 04:35:19;;;;;;;80.32;49.95;;;16.90;99.90;;;;;;4185726;28;20037;-73
2021/09/15 04:37:19;;;;;;;88.63;51.88;;;17.00;99.90;;;;;;4194360;28;20031;-73
2021/09/15 04:39:20;;;;;;;81.90;50.95;;;17.00;99.90;;;;;;4196611;28;20101;-73
2021/09/15 04:41:20;;;;;;;86.70;51.85;;;17.00;99.90;;;;;;4195429;28;20037;-74
2021/09/15 04:43:21;;;;;;;72.07;47.13;;;17.00;99.90;;;;;;4195141;28;20055;-73
2021/09/15 04:45:22;;;;;;;78.00;49.90;;;17.00;99.90;;;;;;4192983;28;20483;-74
2021/09/15 04:47:22;;;;;;;64.93;43.08;;;17.00;99.90;;;;;;4196017;28;20064;-74
2021/09/15 04:49:22;;;;;;;69.75;44.63;;;17.00;99.90;;;;;;4190350;28;20036;-73
2021/09/15 04:51:23;;;;;;;80.47;49.35;;;17.00;99.90;;;;;;4193288;28;20040;-74
2021/09/15 04:53:24;;;;;;;76.35;46.55;;;17.00;99.90;;;;;;4191356;28;20039;-73
2021/09/15 04:55:25;;;;;;;71.05;46.92;;;17.00;99.90;;;;;;4189746;28;20040;-74
2021/09/15 04:57:25;;;;;;;70.65;43.88;;;17.10;99.90;;;;;;4194761;28;20574;-73
2021/09/15 04:59:26;;;;;;;77.25;50.28;;;17.00;99.90;;;;;;4198052;28;20037;-74
2021/09/15 05:01:26;;;;;;;79.50;52.72;;;17.10;99.90;;;;;;4195040;28;20032;-73
2021/09/15 05:03:27;;;;;;;69.65;44.78;;;17.10;99.90;;;;;;4197258;28;20111;-72
2021/09/15 05:05:28;;;;;;;76.80;49.88;;;17.10;99.90;;;;;;4194652;28;20655;-73
2021/09/15 05:07:28;;;;;;;75.68;44.45;;;17.10;99.90;;;;;;4196337;28;20119;-72
2021/09/15 05:09:29;;;;;;;83.22;51.00;;;17.10;99.90;;;;;;4190447;28;20040;-72
2021/09/15 05:11:30;;;;;;;69.75;42.75;;;17.10;99.90;;;;;;4196335;28;20040;-73
2021/09/15 05:13:30;;;;;;;61.97;39.55;;;17.10;99.90;;;;;;4196646;28;20111;-72
2021/09/15 05:15:31;;;;;;;82.65;48.72;;;17.10;99.90;;;;;;4195234;28;20488;-73
2021/09/15 05:17:31;;;;;;;72.85;40.65;;;17.10;99.90;;;;;;4195594;28;20460;-73
2021/09/15 05:19:32;;;;;;;60.42;38.53;;;17.10;99.90;;;;;;4194626;28;20040;-73
2021/09/15 05:21:33;;;;;;;62.03;39.72;;;17.10;99.90;;;;;;4198129;28;20029;-73
2021/09/15 05:23:34;;;;;;;56.13;37.22;;;17.10;99.90;;;;;;4191125;28;20183;-73
2021/09/15 05:25:35;;;;;;;72.55;44.60;;;17.10;99.90;;;;;;4195419;28;20090;-72
2021/09/15 05:27:35;;;;;;;73.80;46.92;;;17.10;99.90;;;;;;4194976;28;20036;-73
2021/09/15 05:29:36;;;;;;;60.55;40.53;;;17.20;99.90;;;;;;4196643;28;20111;-73
2021/09/15 05:31:36;;;;;;;63.95;39.80;;;17.20;99.90;;;;;;4190651;28;20079;-73
2021/09/15 05:33:37;;;;;;;85.22;57.78;;;17.20;99.90;;;;;;4194379;28;20118;-73
2021/09/15 05:35:37;;;;;;;74.75;49.00;;;17.20;99.90;;;;;;4188646;28;20037;-73
2021/09/15 05:37:39;;;;;;;70.57;47.58;;;17.20;99.90;;;;;;4196945;28;20033;-73
2021/09/15 05:39:40;;;;;;;80.93;50.45;;;17.20;99.90;;;;;;4184302;28;20053;-73
2021/09/15 05:41:40;;;;;;;72.00;47.80;;;17.20;99.90;;;;;;4189829;28;20112;-73
2021/09/15 05:43:41;;;;;;;78.82;51.40;;;17.20;99.90;;;;;;4196286;28;20048;-72
2021/09/15 05:45:42;;;;;;;85.35;53.47;;;17.30;99.90;;;;;;4192563;28;20045;-73
2021/09/15 05:47:42;;;;;;;87.57;57.35;;;17.30;99.90;;;;;;4194647;28;20028;-72
2021/09/15 05:49:43;;;;;;;89.70;55.20;;;17.20;99.90;;;;;;4195529;28;20040;-73
2021/09/15 05:51:43;;;;;;;74.38;47.50;;;17.30;99.90;;;;;;4197024;28;20111;-73
2021/09/15 05:53:44;;;;;;;76.25;49.30;;;17.30;99.90;;;;;;4194402;28;20408;-73
2021/09/15 05:55:45;;;;;;;68.45;45.80;;;17.30;99.90;;;;;;4196864;28;20040;-72
2021/09/15 05:57:46;;;;;;;80.70;51.78;;;17.30;99.90;;;;;;4192973;28;20363;-72
2021/09/15 05:59:46;;;;;;;79.65;50.35;;;17.40;99.90;;;;;;4196449;28;20147;-73
2021/09/15 06:01:47;;;;;;;70.47;50.70;;;17.40;99.90;;;;;;4192283;28;20037;-74
2021/09/15 06:03:48;;;;;;;84.93;54.83;;;17.40;99.90;;;;;;4196103;28;20059;-73
2021/09/15 06:05:48;;;;;;;86.22;53.90;;;17.40;99.90;;;;;;4188392;28;20056;-73
2021/09/15 06:07:49;;;;;;;79.68;47.75;;;17.40;99.90;;;;;;4195250;28;20039;-73
2021/09/15 06:09:50;;;;;;;76.38;46.63;;;17.50;99.90;;;;;;4195505;28;20040;-73
2021/09/15 06:11:50;;;;;;;79.60;51.20;;;17.50;99.90;;;;;;4194462;28;20055;-72
2021/09/15 06:13:51;;;;;;;80.10;52.20;;;17.50;99.90;;;;;;4195114;28;20028;-72
2021/09/15 06:15:52;;;;;;;80.30;52.85;;;17.50;99.90;;;;;;4189989;28;20033;-72
2021/09/15 06:17:53;;;;;;;81.38;52.72;;;17.60;99.90;;;;;;4194495;28;20515;-72
2021/09/15 06:19:54;;;;;;;74.05;47.42;;;17.60;99.90;;;;;;4189609;28;20037;-73
2021/09/15 06:21:55;;;;;;;78.35;52.20;;;17.60;99.90;;;;;;4185744;28;20111;-72
2021/09/15 06:23:55;;;;;;;67.85;45.15;;;17.60;99.90;;;;;;4187500;28;20029;-73
2021/09/15 06:25:56;;;;;;;61.85;43.25;;;17.70;99.90;;;;;;4186532;28;20090;-72
2021/09/15 06:27:57;;;;;;;63.90;42.75;;;17.70;99.90;;;;;;4190451;28;20473;-73
2021/09/15 06:29:58;;;;;;;61.53;38.42;;;17.70;99.90;;;;;;4188917;28;20029;-73
2021/09/15 06:31:59;;;;;;;66.40;42.65;;;17.70;99.90;;;;;;4189458;28;20034;-73
2021/09/15 06:33:59;;;;;;;66.43;44.08;;;17.80;99.90;;;;;;4191738;28;20426;-74
2021/09/15 06:36:02;;;;;;;67.97;46.65;;;17.80;99.90;;;;;;4188103;28;20044;-74
2021/09/15 06:38:03;;;;;;;56.15;40.67;;;17.80;99.90;;;;;;4193005;28;20341;-73
2021/09/15 06:40:04;;;;;;;68.38;43.63;;;17.90;99.90;;;;;;4192116;28;20035;-71
2021/09/15 06:42:04;;;;;;;62.78;42.75;;;17.90;99.90;;;;;;4190693;28;20037;-71
2021/09/15 06:44:05;;;;;;;63.08;44.50;;;18.00;99.90;;;;;;4191755;28;20139;-72
2021/09/15 06:46:06;;;;;;;70.00;48.45;;;18.10;99.90;;;;;;4193021;28;20032;-73
2021/09/15 06:48:06;;;;;;;70.05;50.58;;;18.20;99.90;;;;;;4195983;28;20021;-73
2021/09/15 06:50:08;;;;;;;63.50;46.45;;;18.20;99.90;;;;;;4191281;28;20047;-73
2021/09/15 06:52:09;;;;;;;73.63;48.63;;;18.30;99.90;;;;;;4192246;28;20036;-73
2021/09/15 06:54:09;;;;;;;51.75;40.25;;;18.30;99.90;;;;;;4194433;28;20032;-74
2021/09/15 06:56:10;;;;;;;60.92;44.00;;;18.30;99.90;;;;;;4194377;28;20055;-73
2021/09/15 06:58:10;;;;;;;55.33;43.33;;;18.40;99.90;;;;;;4188889;28;20044;-73
2021/09/15 07:00:12;;;;;;;66.82;46.53;;;18.40;99.90;;;;;;4194317;28;20047;-73
2021/09/15 07:02:12;;;;;;;53.83;40.90;;;18.40;99.90;;;;;;4194024;28;20068;-73
2021/09/15 07:04:13;;;;;;;54.45;42.40;;;18.50;99.90;;;;;;4194608;28;20040;-73
2021/09/15 07:06:13;;;;;;;57.55;43.85;;;18.50;99.90;;;;;;4190650;28;20048;-73
2021/09/15 07:08:14;;;;;;;52.35;41.13;;;18.50;99.90;;;;;;4192953;28;20392;-72
2021/09/15 07:10:15;;;;;;;58.90;43.22;;;18.50;99.90;;;;;;4190128;28;20044;-72
2021/09/15 07:12:15;;;;;;;50.72;44.08;;;18.50;99.90;;;;;;4191545;28;20358;-72
2021/09/15 07:14:16;;;;;;;51.13;40.50;;;18.50;99.90;;;;;;4194254;28;20041;-73
2021/09/15 07:16:16;;;;;;;52.22;41.03;;;18.50;99.90;;;;;;4202408;28;20033;-73
2021/09/15 07:18:17;;;;;;;54.63;42.40;;;18.60;99.90;;;;;;4194085;28;20036;-72
2021/09/15 07:20:18;;;;;;;52.92;41.35;;;18.60;99.90;;;;;;4192904;28;20400;-73
2021/09/15 07:22:18;;;;;;;46.08;37.38;;;18.60;99.90;;;;;;4192448;28;20511;-72
2021/09/15 07:24:19;;;;;;;52.40;39.85;;;18.70;99.90;;;;;;4190530;28;20028;-72
2021/09/15 07:26:19;;;;;;;60.83;44.58;;;18.70;99.90;;;;;;4195177;28;20059;-72
2021/09/15 07:28:21;;;;;;;55.67;42.63;;;18.80;99.90;;;;;;4190801;28;20111;-72
2021/09/15 07:30:22;;;;;;;49.45;40.25;;;18.80;99.90;;;;;;4194680;28;20039;-72
2021/09/15 07:32:23;;;;;;;53.47;43.83;;;18.80;99.90;;;;;;4185592;28;20052;-72
2021/09/15 07:34:24;;;;;;;49.22;42.50;;;18.90;99.90;;;;;;4190396;28;20082;-73
2021/09/15 07:36:25;;;;;;;51.75;40.25;;;18.90;99.90;;;;;;4179804;28;20037;-72
2021/09/15 07:38:25;;;;;;;44.85;39.28;;;19.00;99.90;;;;;;4186778;28;20058;-72
2021/09/15 07:40:26;;;;;;;48.67;37.72;;;19.10;99.90;;;;;;4183099;28;20465;-71
2021/09/15 07:42:27;;;;;;;42.65;37.70;;;19.20;99.90;;;;;;4186024;28;20050;-71
2021/09/15 07:44:28;;;;;;;40.75;35.83;;;19.30;99.90;;;;;;4186163;28;20098;-72
2021/09/15 07:46:28;;;;;;;40.55;35.40;;;19.40;99.90;;;;;;4188594;28;20461;-72
2021/09/15 07:48:29;;;;;;;37.92;33.88;;;19.40;99.90;;;;;;4191552;28;20392;-72
2021/09/15 07:50:30;;;;;;;41.45;34.38;;;19.50;99.90;;;;;;4193202;28;20032;-71
2021/09/15 07:52:30;;;;;;;46.13;37.17;;;19.50;99.90;;;;;;4194862;28;20031;-72
2021/09/15 07:54:31;;;;;;;41.50;36.97;;;19.60;99.90;;;;;;4186779;28;20037;-72
2021/09/15 07:56:32;;;;;;;46.75;38.42;;;19.50;99.90;;;;;;4193376;28;20349;-72
2021/09/15 07:58:33;;;;;;;46.53;38.17;;;19.60;99.90;;;;;;4194755;28;20480;-72
2021/09/15 08:00:34;;;;;;;43.15;38.33;;;19.50;99.90;;;;;;4194350;28;20078;-73
2021/09/15 08:02:34;;;;;;;54.05;42.03;;;19.60;99.90;;;;;;4192753;28;20037;-71
2021/09/15 08:04:35;;;;;;;45.35;39.08;;;19.60;99.90;;;;;;4193158;28;20439;-73
2021/09/15 08:06:35;;;;;;;45.85;38.30;;;19.70;99.90;;;;;;4191982;28;20028;-72
2021/09/15 08:08:36;;;;;;;51.97;41.00;;;19.70;99.90;;;;;;4189868;28;20033;-71
2021/09/15 08:10:36;;;;;;;50.95;41.88;;;19.70;99.90;;;;;;4192366;28;20496;-72
2021/09/15 08:12:37;;;;;;;55.65;44.15;;;19.70;99.90;;;;;;4191836;28;20025;-72
2021/09/15 08:14:37;;;;;;;56.25;45.30;;;19.60;99.90;;;;;;4195286;28;20036;-73
2021/09/15 08:16:38;;;;;;;47.30;41.03;;;19.60;99.90;;;;;;4195972;28;20043;-73
2021/09/15 08:18:38;;;;;;;50.83;41.95;;;19.60;99.90;;;;;;4197050;28;20029;-72
2021/09/15 08:20:45;;;;;;;48.53;41.28;;;19.70;99.90;;;;;;4192816;28;20496;-73
2021/09/15 08:22:46;;;;;;;45.38;40.17;;;19.90;99.90;;;;;;4198263;28;20086;-71
2021/09/15 08:24:46;;;;;;;43.15;37.00;;;19.90;99.90;;;;;;4196849;28;20475;-73
2021/09/15 08:26:47;;;;;;;47.80;38.70;;;19.90;99.90;;;;;;4197198;28;20021;-72
2021/09/15 08:28:48;;;;;;;48.85;42.63;;;20.00;99.90;;;;;;4194909;28;20499;-72
2021/09/15 08:30:49;;;;;;;53.00;42.30;;;;;;;;;;4195997;28;20436;-73
2021/09/15 08:32:50;;;;;;;48.47;38.80;;;20.30;99.90;;;;;;4196800;28;20074;-72
2021/09/15 08:34:50;;;;;;;43.33;38.65;;;20.50;99.90;;;;;;4193705;28;20032;-72
2021/09/15 08:36:51;;;;;;;41.13;36.40;;;20.70;99.90;;;;;;4195840;28;20349;-73
2021/09/15 08:38:51;;;;;;;45.22;39.13;;;20.80;99.90;;;;;;4185466;28;20669;-72
2021/09/15 08:40:53;;;;;;;45.47;38.08;;;20.90;99.90;;;;;;4195430;28;20036;-72
2021/09/15 08:42:54;;;;;;;44.70;38.75;;;21.10;99.90;;;;;;4196084;28;20051;-72
2021/09/15 08:44:55;;;;;;;43.22;38.50;;;21.20;99.90;;;;;;4191774;28;20037;-72
2021/09/15 08:46:57;;;;;;;43.13;38.55;;;21.30;99.90;;;;;;4192722;28;20032;-73
2021/09/15 08:48:59;;;;;;;42.53;37.95;;;21.30;99.90;;;;;;4191691;28;20033;-73
2021/09/15 08:51:00;;;;;;;43.25;38.63;;;21.40;99.90;;;;;;4192588;28;20029;-73
2021/09/15 08:53:01;;;;;;;47.60;39.83;;;21.40;99.90;;;;;;4195236;28;20040;-72
2021/09/15 08:55:03;;;;;;;52.80;44.20;;;21.40;99.90;;;;;;4189357;28;20493;-73
2021/09/15 08:57:03;;;;;;;52.70;44.58;;;21.20;99.90;;;;;;4197352;28;20460;-72
2021/09/15 08:59:05;;;;;;;52.28;42.97;;;21.10;99.90;;;;;;4194457;28;20112;-72
2021/09/15 09:01:08;;;;;;;55.42;46.38;;;21.00;99.90;;;;;;4194623;28;20033;-73
2021/09/15 09:03:10;;;;;;;53.05;45.53;;;21.00;99.90;;;;;;4192279;28;20562;-71
2021/09/15 09:05:11;;;;;;;51.63;43.92;;;20.90;99.90;;;;;;4193624;28;20032;-69
2021/09/15 09:07:11;;;;;;;48.60;41.35;;;21.10;99.90;;;;;;4197772;28;20040;-72
2021/09/15 09:09:12;;;;;;;52.78;43.63;;;20.90;99.90;;;;;;4188955;28;20037;-72
2021/09/15 09:11:14;;;;;;;50.45;42.22;;;20.90;99.90;;;;;;4195263;28;20464;-72
2021/09/15 09:13:18;;;;;;;55.20;44.70;;;20.80;99.90;;;;;;4196275;28;20093;-72
2021/09/15 09:15:23;;;;;;;50.45;42.30;;;20.70;99.90;;;;;;4196409;28;20048;-73
2021/09/15 09:17:29;;;;;;;52.78;42.50;;;20.70;99.90;;;;;;4190627;28;20033;-72
2021/09/15 09:19:29;;;;;;;54.85;45.60;;;20.80;99.90;;;;;;4194102;28;20037;-72
2021/09/15 09:21:32;;;;;;;56.40;43.15;;;20.70;99.90;;;;;;4189763;28;20029;-72
2021/09/15 09:23:38;;;;;;;53.28;44.67;;;20.70;99.90;;;;;;4190337;28;20039;-72
2021/09/15 09:25:45;;;;;;;49.00;41.10;;;20.80;99.90;;;;;;4195236;28;20063;-72
2021/09/15 09:27:45;;;;;;;49.88;40.65;;;20.90;99.90;;;;;;4190316;28;20496;-73
2021/09/15 09:29:46;;;;;;;54.00;42.67;;;21.00;99.90;;;;;;4190916;28;20047;-73
2021/09/15 09:32:08;;;;;;;51.83;39.70;;;21.00;99.90;;;;;;4191968;28;20028;-72
2021/09/15 09:34:12;;;;;;;53.38;43.63;;;20.90;99.90;;;;;;4191213;28;20032;-73
2021/09/15 09:36:13;;;;;;;52.13;42.95;;;20.60;99.90;;;;;;4190204;28;20431;-72
2021/09/15 09:38:22;;;;;;;48.35;40.45;;;20.50;99.90;;;;;;4193476;28;20170;-71
2021/09/15 09:40:23;;;;;;;52.60;42.22;;;20.50;99.90;;;;;;4198806;28;20028;-72
2021/09/15 09:42:23;;;;;;;51.45;43.70;;;20.40;99.90;;;;;;4192723;28;20040;-71
2021/09/15 09:44:28;;;;;;;49.72;43.35;;;20.50;99.90;;;;;;4196749;28;20036;-71
2021/09/15 09:46:34;;;;;;;51.90;42.67;;;20.50;99.90;;;;;;4191001;28;20090;-71
2021/09/15 09:48:40;;;;;;;48.88;40.97;;;20.60;99.90;;;;;;4187453;28;20056;-71
2021/09/15 09:50:41;;;;;;;57.83;41.08;;;20.60;99.90;;;;;;4192191;28;20541;-70
2021/09/15 09:53:02;;;;;;;48.00;36.72;;;20.70;99.90;;;;;;4195676;28;20100;-71
2021/09/15 09:55:04;;;;;;;46.67;38.65;;;20.60;99.90;;;;;;4194343;28;20021;-71
2021/09/15 09:57:05;;;;;;;40.65;33.03;;;20.50;99.90;;;;;;4197168;28;20037;-71
2021/09/15 09:59:06;;;;;;;38.40;31.77;;;20.50;99.90;;;;;;4194727;28;20434;-71
2021/09/15 10:01:09;;;;;;;37.47;30.45;;;20.50;99.90;;;;;;4193437;28;20028;-71
2021/09/15 10:03:10;;;;;;;36.28;30.23;;;20.60;99.90;;;;;;4194408;28;20029;-71
2021/09/15 10:05:13;;;;;;;38.33;30.67;;;20.60;99.90;;;;;;4190676;28;20507;-71
2021/09/15 10:07:14;;;;;;;;;;;20.70;99.90;;;;;;4193186;28;20048;-72
2021/09/15 10:09:15;;;;;;;34.17;27.40;;;21.00;99.90;;;;;;4189077;28;20330;-72
2021/09/15 10:11:16;;;;;;;34.85;27.95;;;21.50;99.90;;;;;;4186499;28;20025;-71
2021/09/15 10:13:17;;;;;;;32.17;27.77;;;21.80;99.90;;;;;;4187385;28;20090;-72
2021/09/15 10:15:19;;;;;;;35.78;29.08;;;21.80;99.90;;;;;;4186666;28;20028;-71
2021/09/15 10:17:25;;;;;;;36.55;29.45;;;21.80;99.90;;;;;;4189803;28;20484;-72
2021/09/15 10:19:33;;;;;;;28.05;24.00;;;21.90;99.90;;;;;;4187777;28;20114;-72
2021/09/15 10:21:35;;;;;;;27.05;23.20;;;21.90;99.90;;;;;;4189273;28;20033;-71
2021/09/15 10:23:46;;;;;;;29.70;23.67;;;21.80;99.90;;;;;;4193241;28;20033;-72
2021/09/15 10:25:47;;;;;;;24.17;21.08;;;21.70;99.90;;;;;;4192857;28;20500;-71